sensor_id;sensor_type;location;lat;lon;timestamp;P1;durP1;ratioP1;P2;durP2;ratioP2
44139;SDS011;29803;51.048;4.686;2023-04-03T00:02:23;16.67;;;9.02;;
44139;SDS011;29803;51.048;4.686;2023-04-03T00:04:54;16.65;;;8.30;;
44139;SDS011;29803;51.048;4.686;2023-04-03T00:07:24;23.05;;;8.75;;
44139;SDS011;29803;51.048;4.686;2023-04-03T00:09:55;18.55;;;8.57;;
44139;SDS011;29803;51.048;4.686;2023-04-03T00:12:25;17.73;;;8.20;;
44139;SDS011;29803;51.048;4.686;2023-04-03T00:14:56;15.02;;;8.57;;
44139;SDS011;29803;51.048;4.686;2023-04-03T00:17:26;14.65;;;8.35;;
44139;SDS011;29803;51.048;4.686;2023-04-03T00:19:57;15.80;;;9.40;;
44139;SDS011;29803;51.048;4.686;2023-04-03T00:22:27;25.27;;;8.98;;
44139;SDS011;29803;51.048;4.686;2023-04-03T00:24:58;19.23;;;8.60;;
44139;SDS011;29803;51.048;4.686;2023-04-03T00:27:29;15.05;;;8.13;;
44139;SDS011;29803;51.048;4.686;2023-04-03T00:29:59;22.77;;;8.30;;
44139;SDS011;29803;51.048;4.686;2023-04-03T00:32:29;26.33;;;9.57;;
44139;SDS011;29803;51.048;4.686;2023-04-03T00:35:00;25.15;;;8.50;;
44139;SDS011;29803;51.048;4.686;2023-04-03T00:37:31;16.98;;;8.93;;
44139;SDS011;29803;51.048;4.686;2023-04-03T00:40:02;19.95;;;9.48;;
44139;SDS011;29803;51.048;4.686;2023-04-03T00:42:33;20.30;;;9.88;;
44139;SDS011;29803;51.048;4.686;2023-04-03T00:47:34;21.25;;;8.82;;
44139;SDS011;29803;51.048;4.686;2023-04-03T00:50:05;21.70;;;8.65;;
44139;SDS011;29803;51.048;4.686;2023-04-03T00:52:36;18.88;;;8.52;;
44139;SDS011;29803;51.048;4.686;2023-04-03T00:55:08;17.33;;;8.85;;
44139;SDS011;29803;51.048;4.686;2023-04-03T00:57:40;18.73;;;9.20;;
44139;SDS011;29803;51.048;4.686;2023-04-03T01:00:12;16.33;;;8.43;;
44139;SDS011;29803;51.048;4.686;2023-04-03T01:05:16;23.77;;;9.95;;
44139;SDS011;29803;51.048;4.686;2023-04-03T01:07:49;17.13;;;9.18;;
44139;SDS011;29803;51.048;4.686;2023-04-03T01:10:21;18.95;;;10.30;;
44139;SDS011;29803;51.048;4.686;2023-04-03T01:12:52;13.98;;;7.97;;
44139;SDS011;29803;51.048;4.686;2023-04-03T01:15:42;18.48;;;8.57;;
44139;SDS011;29803;51.048;4.686;2023-04-03T01:18:13;23.15;;;9.70;;
44139;SDS011;29803;51.048;4.686;2023-04-03T01:23:28;16.45;;;8.15;;
44139;SDS011;29803;51.048;4.686;2023-04-03T01:26:38;18.58;;;8.38;;
44139;SDS011;29803;51.048;4.686;2023-04-03T01:29:12;18.55;;;10.00;;
44139;SDS011;29803;51.048;4.686;2023-04-03T01:34:48;17.42;;;8.82;;
44139;SDS011;29803;51.048;4.686;2023-04-03T01:37:19;22.00;;;10.27;;
44139;SDS011;29803;51.048;4.686;2023-04-03T01:39:49;18.23;;;9.23;;
44139;SDS011;29803;51.048;4.686;2023-04-03T01:42:20;20.75;;;8.88;;
44139;SDS011;29803;51.048;4.686;2023-04-03T01:44:50;16.05;;;9.38;;
44139;SDS011;29803;51.048;4.686;2023-04-03T01:47:21;23.55;;;9.20;;
44139;SDS011;29803;51.048;4.686;2023-04-03T01:49:52;20.00;;;9.82;;
44139;SDS011;29803;51.048;4.686;2023-04-03T01:52:23;16.25;;;8.65;;
44139;SDS011;29803;51.048;4.686;2023-04-03T01:54:54;16.60;;;8.55;;
44139;SDS011;29803;51.048;4.686;2023-04-03T01:57:24;15.88;;;8.45;;
44139;SDS011;29803;51.048;4.686;2023-04-03T01:59:55;16.83;;;8.90;;
44139;SDS011;29803;51.048;4.686;2023-04-03T02:02:26;15.80;;;9.05;;
44139;SDS011;29803;51.048;4.686;2023-04-03T02:04:56;21.88;;;9.73;;
44139;SDS011;29803;51.048;4.686;2023-04-03T02:07:27;18.08;;;9.05;;
44139;SDS011;29803;51.048;4.686;2023-04-03T02:09:57;18.08;;;9.05;;
44139;SDS011;29803;51.048;4.686;2023-04-03T02:12:28;17.17;;;8.90;;
44139;SDS011;29803;51.048;4.686;2023-04-03T02:14:58;18.58;;;9.27;;
44139;SDS011;29803;51.048;4.686;2023-04-03T02:17:29;21.88;;;10.35;;
44139;SDS011;29803;51.048;4.686;2023-04-03T02:19:59;17.38;;;8.77;;
44139;SDS011;29803;51.048;4.686;2023-04-03T02:22:30;17.90;;;8.85;;
44139;SDS011;29803;51.048;4.686;2023-04-03T02:25:01;21.23;;;10.40;;
44139;SDS011;29803;51.048;4.686;2023-04-03T02:27:32;17.38;;;9.38;;
44139;SDS011;29803;51.048;4.686;2023-04-03T02:30:03;18.83;;;10.07;;
44139;SDS011;29803;51.048;4.686;2023-04-03T02:32:35;19.67;;;10.00;;
44139;SDS011;29803;51.048;4.686;2023-04-03T02:35:06;24.77;;;10.70;;
44139;SDS011;29803;51.048;4.686;2023-04-03T02:37:37;20.42;;;10.48;;
44139;SDS011;29803;51.048;4.686;2023-04-03T02:40:08;22.35;;;9.80;;
44139;SDS011;29803;51.048;4.686;2023-04-03T02:42:39;25.17;;;10.50;;
44139;SDS011;29803;51.048;4.686;2023-04-03T02:45:10;20.63;;;10.18;;
44139;SDS011;29803;51.048;4.686;2023-04-03T02:47:40;20.70;;;10.10;;
44139;SDS011;29803;51.048;4.686;2023-04-03T02:50:11;24.25;;;10.63;;
44139;SDS011;29803;51.048;4.686;2023-04-03T02:52:41;20.15;;;10.15;;
44139;SDS011;29803;51.048;4.686;2023-04-03T02:55:13;22.25;;;10.68;;
44139;SDS011;29803;51.048;4.686;2023-04-03T02:57:45;23.02;;;10.95;;
44139;SDS011;29803;51.048;4.686;2023-04-03T03:00:16;21.42;;;10.60;;
44139;SDS011;29803;51.048;4.686;2023-04-03T03:02:48;20.90;;;10.95;;
44139;SDS011;29803;51.048;4.686;2023-04-03T03:05:18;20.80;;;10.73;;
44139;SDS011;29803;51.048;4.686;2023-04-03T03:07:49;23.73;;;11.15;;
44139;SDS011;29803;51.048;4.686;2023-04-03T03:10:19;22.13;;;11.30;;
44139;SDS011;29803;51.048;4.686;2023-04-03T03:12:50;22.83;;;11.63;;
44139;SDS011;29803;51.048;4.686;2023-04-03T03:15:21;22.25;;;10.63;;
44139;SDS011;29803;51.048;4.686;2023-04-03T03:17:51;22.20;;;11.27;;
44139;SDS011;29803;51.048;4.686;2023-04-03T03:20:22;25.67;;;11.65;;
44139;SDS011;29803;51.048;4.686;2023-04-03T03:22:52;27.58;;;12.88;;
44139;SDS011;29803;51.048;4.686;2023-04-03T03:25:23;25.73;;;11.88;;
44139;SDS011;29803;51.048;4.686;2023-04-03T03:27:53;30.95;;;12.73;;
44139;SDS011;29803;51.048;4.686;2023-04-03T03:30:24;27.40;;;11.93;;
44139;SDS011;29803;51.048;4.686;2023-04-03T03:32:54;22.08;;;12.38;;
44139;SDS011;29803;51.048;4.686;2023-04-03T03:35:24;23.90;;;12.23;;
44139;SDS011;29803;51.048;4.686;2023-04-03T03:37:55;23.63;;;12.20;;
44139;SDS011;29803;51.048;4.686;2023-04-03T03:40:26;25.20;;;12.77;;
44139;SDS011;29803;51.048;4.686;2023-04-03T03:42:56;27.10;;;12.65;;
44139;SDS011;29803;51.048;4.686;2023-04-03T03:45:26;26.45;;;11.93;;
44139;SDS011;29803;51.048;4.686;2023-04-03T03:47:57;30.05;;;13.23;;
44139;SDS011;29803;51.048;4.686;2023-04-03T03:50:27;32.50;;;13.82;;
44139;SDS011;29803;51.048;4.686;2023-04-03T03:52:58;24.83;;;13.13;;
44139;SDS011;29803;51.048;4.686;2023-04-03T03:55:28;30.75;;;13.38;;
44139;SDS011;29803;51.048;4.686;2023-04-03T03:57:59;31.13;;;14.07;;
44139;SDS011;29803;51.048;4.686;2023-04-03T04:00:31;25.58;;;12.25;;
44139;SDS011;29803;51.048;4.686;2023-04-03T04:03:01;26.42;;;12.23;;
44139;SDS011;29803;51.048;4.686;2023-04-03T04:05:32;30.92;;;12.75;;
44139;SDS011;29803;51.048;4.686;2023-04-03T04:08:02;27.27;;;12.98;;
44139;SDS011;29803;51.048;4.686;2023-04-03T04:10:33;30.30;;;13.30;;
44139;SDS011;29803;51.048;4.686;2023-04-03T04:13:04;28.38;;;12.65;;
44139;SDS011;29803;51.048;4.686;2023-04-03T04:15:34;26.08;;;12.45;;
44139;SDS011;29803;51.048;4.686;2023-04-03T04:18:05;30.77;;;12.75;;
44139;SDS011;29803;51.048;4.686;2023-04-03T04:20:36;27.50;;;13.30;;
44139;SDS011;29803;51.048;4.686;2023-04-03T04:23:06;28.67;;;13.15;;
44139;SDS011;29803;51.048;4.686;2023-04-03T04:25:37;26.20;;;13.25;;
44139;SDS011;29803;51.048;4.686;2023-04-03T04:28:07;30.73;;;14.23;;
44139;SDS011;29803;51.048;4.686;2023-04-03T04:30:38;34.88;;;15.18;;
44139;SDS011;29803;51.048;4.686;2023-04-03T04:33:08;32.88;;;14.10;;
44139;SDS011;29803;51.048;4.686;2023-04-03T04:35:39;27.52;;;14.32;;
44139;SDS011;29803;51.048;4.686;2023-04-03T04:38:11;35.70;;;13.57;;
44139;SDS011;29803;51.048;4.686;2023-04-03T04:40:42;30.83;;;13.80;;
44139;SDS011;29803;51.048;4.686;2023-04-03T04:43:12;31.15;;;13.90;;
44139;SDS011;29803;51.048;4.686;2023-04-03T04:45:44;31.83;;;13.43;;
44139;SDS011;29803;51.048;4.686;2023-04-03T04:48:15;27.63;;;13.07;;
44139;SDS011;29803;51.048;4.686;2023-04-03T04:50:45;25.17;;;12.98;;
44139;SDS011;29803;51.048;4.686;2023-04-03T04:53:15;27.90;;;12.60;;
44139;SDS011;29803;51.048;4.686;2023-04-03T04:55:46;33.75;;;12.70;;
44139;SDS011;29803;51.048;4.686;2023-04-03T04:58:16;24.88;;;13.07;;
44139;SDS011;29803;51.048;4.686;2023-04-03T05:00:47;26.52;;;12.60;;
44139;SDS011;29803;51.048;4.686;2023-04-03T05:03:17;24.63;;;12.35;;
44139;SDS011;29803;51.048;4.686;2023-04-03T05:05:48;26.02;;;13.63;;
44139;SDS011;29803;51.048;4.686;2023-04-03T05:08:18;27.80;;;13.73;;
44139;SDS011;29803;51.048;4.686;2023-04-03T05:10:49;35.95;;;14.90;;
44139;SDS011;29803;51.048;4.686;2023-04-03T05:13:19;30.10;;;14.68;;
44139;SDS011;29803;51.048;4.686;2023-04-03T05:15:50;31.35;;;13.90;;
44139;SDS011;29803;51.048;4.686;2023-04-03T05:18:20;31.65;;;14.93;;
44139;SDS011;29803;51.048;4.686;2023-04-03T05:20:51;30.30;;;15.70;;
44139;SDS011;29803;51.048;4.686;2023-04-03T05:23:21;33.53;;;15.30;;
44139;SDS011;29803;51.048;4.686;2023-04-03T05:25:52;38.22;;;16.30;;
44139;SDS011;29803;51.048;4.686;2023-04-03T05:28:23;37.03;;;16.60;;
44139;SDS011;29803;51.048;4.686;2023-04-03T05:30:55;33.72;;;16.77;;
44139;SDS011;29803;51.048;4.686;2023-04-03T05:33:26;37.75;;;16.42;;
44139;SDS011;29803;51.048;4.686;2023-04-03T05:36:01;29.23;;;15.65;;
44139;SDS011;29803;51.048;4.686;2023-04-03T05:38:33;36.85;;;15.63;;
44139;SDS011;29803;51.048;4.686;2023-04-03T05:41:04;31.13;;;16.10;;
44139;SDS011;29803;51.048;4.686;2023-04-03T05:43:34;36.65;;;16.58;;
44139;SDS011;29803;51.048;4.686;2023-04-03T05:48:53;34.15;;;16.50;;
44139;SDS011;29803;51.048;4.686;2023-04-03T05:51:25;32.70;;;16.10;;
44139;SDS011;29803;51.048;4.686;2023-04-03T05:56:53;35.08;;;16.60;;
44139;SDS011;29803;51.048;4.686;2023-04-03T05:59:24;36.67;;;16.90;;
44139;SDS011;29803;51.048;4.686;2023-04-03T06:01:54;36.13;;;16.70;;
44139;SDS011;29803;51.048;4.686;2023-04-03T06:04:25;40.63;;;18.15;;
44139;SDS011;29803;51.048;4.686;2023-04-03T06:06:56;39.22;;;16.48;;
44139;SDS011;29803;51.048;4.686;2023-04-03T06:09:28;29.73;;;16.85;;
44139;SDS011;29803;51.048;4.686;2023-04-03T06:12:00;28.65;;;15.45;;
44139;SDS011;29803;51.048;4.686;2023-04-03T06:14:31;25.83;;;13.60;;
44139;SDS011;29803;51.048;4.686;2023-04-03T06:17:01;23.67;;;12.18;;
44139;SDS011;29803;51.048;4.686;2023-04-03T06:19:32;21.60;;;10.57;;
44139;SDS011;29803;51.048;4.686;2023-04-03T06:22:03;17.55;;;9.57;;
44139;SDS011;29803;51.048;4.686;2023-04-03T06:24:34;20.98;;;8.30;;
44139;SDS011;29803;51.048;4.686;2023-04-03T06:27:05;18.08;;;8.55;;
44139;SDS011;29803;51.048;4.686;2023-04-03T06:29:35;14.70;;;7.38;;
44139;SDS011;29803;51.048;4.686;2023-04-03T06:32:07;13.48;;;7.55;;
44139;SDS011;29803;51.048;4.686;2023-04-03T06:34:37;12.77;;;7.35;;
44139;SDS011;29803;51.048;4.686;2023-04-03T06:39:56;14.15;;;6.68;;
44139;SDS011;29803;51.048;4.686;2023-04-03T06:42:26;17.75;;;7.38;;
44139;SDS011;29803;51.048;4.686;2023-04-03T06:44:57;18.35;;;6.70;;
44139;SDS011;29803;51.048;4.686;2023-04-03T06:47:27;10.57;;;5.75;;
44139;SDS011;29803;51.048;4.686;2023-04-03T06:49:58;12.25;;;6.05;;
44139;SDS011;29803;51.048;4.686;2023-04-03T06:52:28;9.70;;;5.82;;
44139;SDS011;29803;51.048;4.686;2023-04-03T06:54:59;9.82;;;5.75;;
44139;SDS011;29803;51.048;4.686;2023-04-03T06:57:30;10.48;;;5.95;;
44139;SDS011;29803;51.048;4.686;2023-04-03T07:00:01;11.02;;;6.60;;
44139;SDS011;29803;51.048;4.686;2023-04-03T07:02:34;12.70;;;5.65;;
44139;SDS011;29803;51.048;4.686;2023-04-03T07:05:04;10.15;;;6.15;;
44139;SDS011;29803;51.048;4.686;2023-04-03T07:07:35;16.70;;;5.30;;
44139;SDS011;29803;51.048;4.686;2023-04-03T07:10:08;13.18;;;6.00;;
44139;SDS011;29803;51.048;4.686;2023-04-03T07:12:38;8.70;;;5.82;;
44139;SDS011;29803;51.048;4.686;2023-04-03T07:15:09;12.32;;;5.35;;
44139;SDS011;29803;51.048;4.686;2023-04-03T07:17:42;11.88;;;4.90;;
44139;SDS011;29803;51.048;4.686;2023-04-03T07:20:12;12.80;;;5.13;;
44139;SDS011;29803;51.048;4.686;2023-04-03T07:22:43;10.65;;;4.43;;
44139;SDS011;29803;51.048;4.686;2023-04-03T07:25:13;10.98;;;4.75;;
44139;SDS011;29803;51.048;4.686;2023-04-03T07:27:44;11.68;;;4.50;;
44139;SDS011;29803;51.048;4.686;2023-04-03T07:30:14;10.90;;;4.32;;
44139;SDS011;29803;51.048;4.686;2023-04-03T07:32:45;9.90;;;4.78;;
44139;SDS011;29803;51.048;4.686;2023-04-03T07:35:16;10.30;;;4.63;;
44139;SDS011;29803;51.048;4.686;2023-04-03T07:37:47;8.88;;;4.50;;
44139;SDS011;29803;51.048;4.686;2023-04-03T07:40:17;11.30;;;4.63;;
44139;SDS011;29803;51.048;4.686;2023-04-03T07:42:48;9.45;;;4.43;;
44139;SDS011;29803;51.048;4.686;2023-04-03T07:45:18;12.88;;;4.60;;
44139;SDS011;29803;51.048;4.686;2023-04-03T07:47:49;8.60;;;4.43;;
44139;SDS011;29803;51.048;4.686;2023-04-03T07:50:19;14.10;;;4.45;;
44139;SDS011;29803;51.048;4.686;2023-04-03T07:52:50;8.35;;;4.40;;
44139;SDS011;29803;51.048;4.686;2023-04-03T07:55:22;9.60;;;4.10;;
44139;SDS011;29803;51.048;4.686;2023-04-03T07:57:53;9.18;;;3.50;;
44139;SDS011;29803;51.048;4.686;2023-04-03T08:00:24;7.47;;;3.70;;
44139;SDS011;29803;51.048;4.686;2023-04-03T08:02:54;11.45;;;3.60;;
44139;SDS011;29803;51.048;4.686;2023-04-03T08:05:25;7.95;;;3.70;;
44139;SDS011;29803;51.048;4.686;2023-04-03T08:07:56;10.05;;;4.25;;
44139;SDS011;29803;51.048;4.686;2023-04-03T08:10:26;10.13;;;3.42;;
44139;SDS011;29803;51.048;4.686;2023-04-03T08:12:59;14.90;;;3.75;;
44139;SDS011;29803;51.048;4.686;2023-04-03T08:15:31;10.10;;;3.80;;
44139;SDS011;29803;51.048;4.686;2023-04-03T08:18:02;8.15;;;3.35;;
44139;SDS011;29803;51.048;4.686;2023-04-03T08:20:33;11.30;;;3.38;;
44139;SDS011;29803;51.048;4.686;2023-04-03T08:23:04;9.18;;;3.17;;
44139;SDS011;29803;51.048;4.686;2023-04-03T08:28:21;7.85;;;2.88;;
44139;SDS011;29803;51.048;4.686;2023-04-03T08:30:52;14.52;;;3.92;;
44139;SDS011;29803;51.048;4.686;2023-04-03T08:33:22;11.27;;;3.10;;
44139;SDS011;29803;51.048;4.686;2023-04-03T08:35:52;6.65;;;2.65;;
44139;SDS011;29803;51.048;4.686;2023-04-03T08:38:23;6.93;;;2.40;;
44139;SDS011;29803;51.048;4.686;2023-04-03T08:44:07;6.85;;;2.95;;
44139;SDS011;29803;51.048;4.686;2023-04-03T08:49:37;6.45;;;2.63;;
44139;SDS011;29803;51.048;4.686;2023-04-03T08:52:17;6.43;;;2.75;;
44139;SDS011;29803;51.048;4.686;2023-04-03T09:02:48;9.10;;;2.35;;
44139;SDS011;29803;51.048;4.686;2023-04-03T09:11:15;11.10;;;2.45;;
44139;SDS011;29803;51.048;4.686;2023-04-03T09:14:01;6.07;;;2.20;;
44139;SDS011;29803;51.048;4.686;2023-04-03T09:25:11;5.05;;;2.38;;
44139;SDS011;29803;51.048;4.686;2023-04-03T09:27:47;6.75;;;2.22;;
44139;SDS011;29803;51.048;4.686;2023-04-03T09:30:19;7.78;;;3.05;;
44139;SDS011;29803;51.048;4.686;2023-04-03T09:32:52;7.50;;;2.17;;
44139;SDS011;29803;51.048;4.686;2023-04-03T09:35:25;6.80;;;2.20;;
44139;SDS011;29803;51.048;4.686;2023-04-03T09:37:58;8.60;;;2.50;;
44139;SDS011;29803;51.048;4.686;2023-04-03T09:40:42;8.63;;;2.47;;
44139;SDS011;29803;51.048;4.686;2023-04-03T09:45:52;4.78;;;2.30;;
44139;SDS011;29803;51.048;4.686;2023-04-03T09:48:24;6.88;;;2.10;;
44139;SDS011;29803;51.048;4.686;2023-04-03T09:50:58;5.15;;;1.90;;
44139;SDS011;29803;51.048;4.686;2023-04-03T09:58:47;4.93;;;2.28;;
44139;SDS011;29803;51.048;4.686;2023-04-03T10:01:30;6.03;;;2.05;;
44139;SDS011;29803;51.048;4.686;2023-04-03T10:06:48;5.70;;;1.90;;
44139;SDS011;29803;51.048;4.686;2023-04-03T10:09:31;5.82;;;2.20;;
44139;SDS011;29803;51.048;4.686;2023-04-03T10:12:04;7.40;;;2.00;;
44139;SDS011;29803;51.048;4.686;2023-04-03T10:14:37;10.88;;;2.08;;
44139;SDS011;29803;51.048;4.686;2023-04-03T10:20:02;5.25;;;1.88;;
44139;SDS011;29803;51.048;4.686;2023-04-03T10:23:00;4.55;;;2.15;;
44139;SDS011;29803;51.048;4.686;2023-04-03T10:25:41;7.57;;;2.53;;
44139;SDS011;29803;51.048;4.686;2023-04-03T10:34:39;5.10;;;1.83;;
44139;SDS011;29803;51.048;4.686;2023-04-03T10:37:17;2.60;;;1.40;;
44139;SDS011;29803;51.048;4.686;2023-04-03T10:39:57;5.60;;;1.50;;
44139;SDS011;29803;51.048;4.686;2023-04-03T10:45:51;4.40;;;1.58;;
44139;SDS011;29803;51.048;4.686;2023-04-03T10:48:32;5.55;;;1.50;;
44139;SDS011;29803;51.048;4.686;2023-04-03T10:51:18;7.07;;;1.75;;
44139;SDS011;29803;51.048;4.686;2023-04-03T10:56:55;4.80;;;2.00;;
44139;SDS011;29803;51.048;4.686;2023-04-03T10:59:32;4.07;;;1.92;;
44139;SDS011;29803;51.048;4.686;2023-04-03T11:04:55;4.72;;;1.50;;
44139;SDS011;29803;51.048;4.686;2023-04-03T11:10:30;3.30;;;1.08;;
44139;SDS011;29803;51.048;4.686;2023-04-03T11:13:08;9.10;;;2.08;;
44139;SDS011;29803;51.048;4.686;2023-04-03T11:15:41;3.33;;;1.20;;
44139;SDS011;29803;51.048;4.686;2023-04-03T11:18:17;3.85;;;1.67;;
44139;SDS011;29803;51.048;4.686;2023-04-03T11:20:57;4.78;;;1.58;;
44139;SDS011;29803;51.048;4.686;2023-04-03T11:23:34;4.38;;;1.50;;
44139;SDS011;29803;51.048;4.686;2023-04-03T11:26:09;4.60;;;1.92;;
44139;SDS011;29803;51.048;4.686;2023-04-03T11:28:41;3.65;;;1.17;;
44139;SDS011;29803;51.048;4.686;2023-04-03T11:37:13;2.67;;;1.10;;
44139;SDS011;29803;51.048;4.686;2023-04-03T11:42:55;3.28;;;1.02;;
44139;SDS011;29803;51.048;4.686;2023-04-03T11:45:36;6.68;;;1.23;;
44139;SDS011;29803;51.048;4.686;2023-04-03T11:50:50;3.20;;;1.30;;
44139;SDS011;29803;51.048;4.686;2023-04-03T12:04:31;4.15;;;1.25;;
44139;SDS011;29803;51.048;4.686;2023-04-03T12:07:11;4.78;;;1.20;;
44139;SDS011;29803;51.048;4.686;2023-04-03T12:15:18;3.45;;;1.38;;
44139;SDS011;29803;51.048;4.686;2023-04-03T12:21:09;2.92;;;1.23;;
44139;SDS011;29803;51.048;4.686;2023-04-03T12:29:27;4.97;;;1.30;;
44139;SDS011;29803;51.048;4.686;2023-04-03T12:49:55;5.47;;;1.48;;
44139;SDS011;29803;51.048;4.686;2023-04-03T12:52:30;4.10;;;1.40;;
44139;SDS011;29803;51.048;4.686;2023-04-03T12:55:02;7.07;;;1.35;;
44139;SDS011;29803;51.048;4.686;2023-04-03T12:57:37;6.70;;;1.70;;
44139;SDS011;29803;51.048;4.686;2023-04-03T13:02:57;2.80;;;1.58;;
44139;SDS011;29803;51.048;4.686;2023-04-03T13:05:28;4.55;;;1.45;;
44139;SDS011;29803;51.048;4.686;2023-04-03T13:08:01;7.20;;;1.58;;
44139;SDS011;29803;51.048;4.686;2023-04-03T13:10:43;4.85;;;1.67;;
44139;SDS011;29803;51.048;4.686;2023-04-03T13:13:20;4.07;;;1.60;;
44139;SDS011;29803;51.048;4.686;2023-04-03T13:15:53;6.18;;;2.05;;
44139;SDS011;29803;51.048;4.686;2023-04-03T13:21:21;3.47;;;1.40;;
44139;SDS011;29803;51.048;4.686;2023-04-03T13:26:28;3.85;;;1.58;;
44139;SDS011;29803;51.048;4.686;2023-04-03T13:29:03;6.90;;;1.88;;
44139;SDS011;29803;51.048;4.686;2023-04-03T13:31:37;3.13;;;1.35;;
44139;SDS011;29803;51.048;4.686;2023-04-03T13:36:41;4.38;;;1.48;;
44139;SDS011;29803;51.048;4.686;2023-04-03T13:41:47;10.27;;;1.70;;
44139;SDS011;29803;51.048;4.686;2023-04-03T13:46:52;6.68;;;1.80;;
44139;SDS011;29803;51.048;4.686;2023-04-03T13:51:56;54.90;;;17.85;;
44139;SDS011;29803;51.048;4.686;2023-04-03T13:54:30;56.05;;;14.65;;
44139;SDS011;29803;51.048;4.686;2023-04-03T13:57:11;20.27;;;6.90;;
44139;SDS011;29803;51.048;4.686;2023-04-03T13:59:44;9.60;;;3.13;;
44139;SDS011;29803;51.048;4.686;2023-04-03T14:02:16;19.88;;;5.63;;
44139;SDS011;29803;51.048;4.686;2023-04-03T14:04:51;5.53;;;1.00;;
44139;SDS011;29803;51.048;4.686;2023-04-03T14:07:30;7.45;;;1.58;;
44139;SDS011;29803;51.048;4.686;2023-04-03T14:10:01;3.22;;;1.20;;
44139;SDS011;29803;51.048;4.686;2023-04-03T14:12:33;6.97;;;2.05;;
44139;SDS011;29803;51.048;4.686;2023-04-03T14:17:58;5.32;;;1.33;;
44139;SDS011;29803;51.048;4.686;2023-04-03T14:20:28;3.83;;;1.20;;
44139;SDS011;29803;51.048;4.686;2023-04-03T14:22:59;2.78;;;1.35;;
44139;SDS011;29803;51.048;4.686;2023-04-03T14:25:30;2.67;;;1.50;;
44139;SDS011;29803;51.048;4.686;2023-04-03T14:28:01;3.75;;;1.20;;
44139;SDS011;29803;51.048;4.686;2023-04-03T14:30:43;2.97;;;1.02;;
44139;SDS011;29803;51.048;4.686;2023-04-03T14:33:16;4.82;;;1.40;;
44139;SDS011;29803;51.048;4.686;2023-04-03T14:35:49;4.22;;;1.35;;
44139;SDS011;29803;51.048;4.686;2023-04-03T14:38:21;7.63;;;1.55;;
44139;SDS011;29803;51.048;4.686;2023-04-03T14:40:54;2.95;;;1.27;;
44139;SDS011;29803;51.048;4.686;2023-04-03T14:43:25;4.68;;;1.52;;
44139;SDS011;29803;51.048;4.686;2023-04-03T14:45:56;3.03;;;1.63;;
44139;SDS011;29803;51.048;4.686;2023-04-03T14:48:27;3.75;;;1.10;;
44139;SDS011;29803;51.048;4.686;2023-04-03T14:51:00;6.53;;;1.65;;
44139;SDS011;29803;51.048;4.686;2023-04-03T14:53:30;3.80;;;1.40;;
44139;SDS011;29803;51.048;4.686;2023-04-03T14:56:04;5.63;;;1.15;;
44139;SDS011;29803;51.048;4.686;2023-04-03T14:58:55;2.97;;;0.73;;
44139;SDS011;29803;51.048;4.686;2023-04-03T15:01:28;3.80;;;1.20;;
44139;SDS011;29803;51.048;4.686;2023-04-03T15:03:59;3.90;;;1.20;;
44139;SDS011;29803;51.048;4.686;2023-04-03T15:06:29;5.95;;;1.80;;
44139;SDS011;29803;51.048;4.686;2023-04-03T15:09:00;6.43;;;1.45;;
44139;SDS011;29803;51.048;4.686;2023-04-03T15:11:30;3.15;;;1.13;;
44139;SDS011;29803;51.048;4.686;2023-04-03T15:14:01;3.97;;;1.20;;
44139;SDS011;29803;51.048;4.686;2023-04-03T15:16:31;3.22;;;1.20;;
44139;SDS011;29803;51.048;4.686;2023-04-03T15:19:02;4.93;;;1.17;;
44139;SDS011;29803;51.048;4.686;2023-04-03T15:21:33;5.15;;;1.48;;
44139;SDS011;29803;51.048;4.686;2023-04-03T15:24:03;3.72;;;1.10;;
44139;SDS011;29803;51.048;4.686;2023-04-03T15:26:34;3.42;;;1.25;;
44139;SDS011;29803;51.048;4.686;2023-04-03T15:29:04;3.67;;;1.92;;
44139;SDS011;29803;51.048;4.686;2023-04-03T15:31:35;3.20;;;1.40;;
44139;SDS011;29803;51.048;4.686;2023-04-03T15:34:06;5.03;;;1.35;;
44139;SDS011;29803;51.048;4.686;2023-04-03T15:36:36;5.50;;;1.50;;
44139;SDS011;29803;51.048;4.686;2023-04-03T15:39:06;5.00;;;1.65;;
44139;SDS011;29803;51.048;4.686;2023-04-03T15:41:37;5.18;;;1.15;;
44139;SDS011;29803;51.048;4.686;2023-04-03T15:44:07;3.70;;;1.27;;
44139;SDS011;29803;51.048;4.686;2023-04-03T15:46:38;3.00;;;1.13;;
44139;SDS011;29803;51.048;4.686;2023-04-03T15:49:09;4.32;;;1.20;;
44139;SDS011;29803;51.048;4.686;2023-04-03T15:51:40;5.80;;;1.63;;
44139;SDS011;29803;51.048;4.686;2023-04-03T15:54:10;2.65;;;1.27;;
44139;SDS011;29803;51.048;4.686;2023-04-03T15:56:41;3.20;;;1.30;;
44139;SDS011;29803;51.048;4.686;2023-04-03T15:59:11;3.35;;;1.70;;
44139;SDS011;29803;51.048;4.686;2023-04-03T16:01:42;3.95;;;1.55;;
44139;SDS011;29803;51.048;4.686;2023-04-03T16:04:13;4.50;;;1.50;;
44139;SDS011;29803;51.048;4.686;2023-04-03T16:06:44;7.93;;;1.30;;
44139;SDS011;29803;51.048;4.686;2023-04-03T16:09:14;5.72;;;1.50;;
44139;SDS011;29803;51.048;4.686;2023-04-03T16:11:45;4.18;;;1.90;;
44139;SDS011;29803;51.048;4.686;2023-04-03T16:14:15;3.63;;;1.60;;
44139;SDS011;29803;51.048;4.686;2023-04-03T16:16:46;6.07;;;1.50;;
44139;SDS011;29803;51.048;4.686;2023-04-03T16:19:16;3.65;;;1.38;;
44139;SDS011;29803;51.048;4.686;2023-04-03T16:21:47;4.55;;;1.70;;
44139;SDS011;29803;51.048;4.686;2023-04-03T16:24:18;4.00;;;1.40;;
44139;SDS011;29803;51.048;4.686;2023-04-03T16:26:48;8.15;;;1.52;;
44139;SDS011;29803;51.048;4.686;2023-04-03T16:29:19;4.43;;;1.33;;
44139;SDS011;29803;51.048;4.686;2023-04-03T16:31:49;6.05;;;1.73;;
44139;SDS011;29803;51.048;4.686;2023-04-03T16:34:20;4.40;;;1.73;;
44139;SDS011;29803;51.048;4.686;2023-04-03T16:36:50;2.75;;;1.35;;
44139;SDS011;29803;51.048;4.686;2023-04-03T16:39:22;6.18;;;2.45;;
44139;SDS011;29803;51.048;4.686;2023-04-03T16:41:52;5.28;;;1.70;;
44139;SDS011;29803;51.048;4.686;2023-04-03T16:44:23;5.80;;;1.70;;
44139;SDS011;29803;51.048;4.686;2023-04-03T16:46:53;8.50;;;2.83;;
44139;SDS011;29803;51.048;4.686;2023-04-03T16:49:24;5.03;;;1.83;;
44139;SDS011;29803;51.048;4.686;2023-04-03T16:51:55;9.27;;;2.00;;
44139;SDS011;29803;51.048;4.686;2023-04-03T16:54:25;8.65;;;1.92;;
44139;SDS011;29803;51.048;4.686;2023-04-03T16:56:56;7.65;;;2.10;;
44139;SDS011;29803;51.048;4.686;2023-04-03T16:59:27;7.18;;;1.77;;
44139;SDS011;29803;51.048;4.686;2023-04-03T17:01:57;8.13;;;1.63;;
44139;SDS011;29803;51.048;4.686;2023-04-03T17:04:28;5.18;;;1.92;;
44139;SDS011;29803;51.048;4.686;2023-04-03T17:06:58;22.73;;;2.13;;
44139;SDS011;29803;51.048;4.686;2023-04-03T17:09:35;4.05;;;1.60;;
44139;SDS011;29803;51.048;4.686;2023-04-03T17:12:05;5.50;;;1.80;;
44139;SDS011;29803;51.048;4.686;2023-04-03T17:14:36;9.50;;;1.85;;
44139;SDS011;29803;51.048;4.686;2023-04-03T17:17:06;7.63;;;1.60;;
44139;SDS011;29803;51.048;4.686;2023-04-03T17:19:38;7.25;;;1.58;;
44139;SDS011;29803;51.048;4.686;2023-04-03T17:22:10;6.05;;;1.98;;
44139;SDS011;29803;51.048;4.686;2023-04-03T17:24:41;8.52;;;2.25;;
44139;SDS011;29803;51.048;4.686;2023-04-03T17:27:11;9.52;;;1.98;;
44139;SDS011;29803;51.048;4.686;2023-04-03T17:29:42;10.23;;;2.08;;
44139;SDS011;29803;51.048;4.686;2023-04-03T17:32:12;4.18;;;1.65;;
44139;SDS011;29803;51.048;4.686;2023-04-03T17:34:44;6.47;;;2.05;;
44139;SDS011;29803;51.048;4.686;2023-04-03T17:37:16;4.82;;;1.90;;
44139;SDS011;29803;51.048;4.686;2023-04-03T17:39:46;6.13;;;2.13;;
44139;SDS011;29803;51.048;4.686;2023-04-03T17:42:17;5.30;;;1.92;;
44139;SDS011;29803;51.048;4.686;2023-04-03T17:44:47;4.50;;;1.70;;
44139;SDS011;29803;51.048;4.686;2023-04-03T17:47:18;8.18;;;2.20;;